createdAt,value
2018-08-30T00:01:47.956Z,15.70
2018-08-30T00:04:22.373Z,15.70
2018-08-30T00:06:56.767Z,15.70
2018-08-30T00:09:43.483Z,15.70
2018-08-30T00:12:14.944Z,15.70
2018-08-30T00:14:47.932Z,15.70
2018-08-30T00:17:19.902Z,15.80
2018-08-30T00:19:49.993Z,15.70
2018-08-30T00:22:20.065Z,15.70
2018-08-30T00:24:54.720Z,15.70
2018-08-30T00:30:34.891Z,15.70
2018-08-30T00:33:04.617Z,15.60
2018-08-30T00:35:34.664Z,15.60
2018-08-30T00:38:03.729Z,15.60
2018-08-30T00:40:34.984Z,15.50
2018-08-30T00:48:48.064Z,15.40
2018-08-30T00:51:22.505Z,15.40
2018-08-30T00:59:40.325Z,15.30
2018-08-30T01:02:16.144Z,15.30
2018-08-30T01:04:47.298Z,15.30
2018-08-30T01:07:19.184Z,15.30
2018-08-30T01:09:51.865Z,15.30
2018-08-30T01:12:21.425Z,15.30
2018-08-30T01:17:48.556Z,15.30
2018-08-30T01:23:13.746Z,15.20
2018-08-30T01:26:00.642Z,15.20
2018-08-30T01:28:32.069Z,15.20
2018-08-30T01:31:01.008Z,15.10
2018-08-30T01:36:27.296Z,15.10
2018-08-30T01:39:10.386Z,15.10
2018-08-30T01:41:44.584Z,15.10
2018-08-30T01:44:20.688Z,15.10
2018-08-30T01:47:06.539Z,15.00
2018-08-30T01:49:51.854Z,15.00
2018-08-30T01:52:38.504Z,15.00
2018-08-30T01:55:11.341Z,14.90
2018-08-30T01:57:52.933Z,14.90
2018-08-30T02:00:39.950Z,14.90
2018-08-30T02:03:13.866Z,14.80
2018-08-30T02:05:43.133Z,14.80
2018-08-30T02:08:15.189Z,14.80
2018-08-30T02:10:43.916Z,14.70
2018-08-30T02:13:12.687Z,14.70
2018-08-30T02:15:47.728Z,14.60
2018-08-30T02:21:17.383Z,14.60
2018-08-30T02:23:58.646Z,14.60
2018-08-30T02:26:31.037Z,14.60
2018-08-30T02:29:15.623Z,14.50
2018-08-30T02:31:53.839Z,14.40
2018-08-30T02:34:25.220Z,14.50
2018-08-30T02:36:55.667Z,14.40
2018-08-30T02:39:27.041Z,14.40
2018-08-30T02:42:03.421Z,14.40
2018-08-30T02:44:33.319Z,14.30
2018-08-30T02:47:14.735Z,14.30
2018-08-30T02:50:01.590Z,14.20
2018-08-30T02:52:39.416Z,14.20
2018-08-30T02:55:15.064Z,14.20
2018-08-30T02:57:43.478Z,14.20
2018-08-30T03:00:17.683Z,14.10
2018-08-30T03:02:53.378Z,14.10
2018-08-30T03:05:28.232Z,14.10
2018-08-30T03:07:57.618Z,14.10
2018-08-30T03:10:26.681Z,14.00
2018-08-30T03:12:58.067Z,14.00
2018-08-30T03:21:28.948Z,14.00
2018-08-30T03:24:00.707Z,13.90
2018-08-30T03:26:29.652Z,13.90
2018-08-30T03:29:03.781Z,13.90
2018-08-30T03:31:32.172Z,13.90
2018-08-30T03:34:14.724Z,13.90
2018-08-30T03:36:51.157Z,13.90
2018-08-30T03:39:37.678Z,13.90
2018-08-30T03:42:12.633Z,13.90
2018-08-30T03:44:43.408Z,13.80
2018-08-30T03:53:04.671Z,13.80
2018-08-30T03:55:40.953Z,13.80
2018-08-30T03:58:22.388Z,13.70
2018-08-30T04:00:56.540Z,13.70
2018-08-30T04:03:31.196Z,13.70
2018-08-30T04:05:59.560Z,13.70
2018-08-30T04:08:28.388Z,13.70
2018-08-30T04:11:00.436Z,13.70
2018-08-30T04:13:28.838Z,13.70
2018-08-30T04:15:58.645Z,13.70
2018-08-30T04:18:36.708Z,13.70
2018-08-30T04:21:26.479Z,13.70
2018-08-30T04:23:54.881Z,13.70
2018-08-30T04:26:35.656Z,13.70
2018-08-30T04:29:11.513Z,13.70
2018-08-30T04:32:03.994Z,13.70
2018-08-30T04:34:39.617Z,13.70
2018-08-30T04:37:10.916Z,13.60
2018-08-30T04:39:39.885Z,13.60
2018-08-30T04:42:14.293Z,13.60
2018-08-30T04:47:35.960Z,13.60
2018-08-30T04:50:09.362Z,13.60
2018-08-30T04:52:45.245Z,13.60
2018-08-30T04:55:14.734Z,13.60
2018-08-30T04:57:44.032Z,13.60
2018-08-30T05:00:34.156Z,13.60
2018-08-30T05:03:12.241Z,13.60
2018-08-30T05:05:50.208Z,13.60
2018-08-30T05:08:36.524Z,13.60
2018-08-30T05:11:24.224Z,13.50
2018-08-30T05:14:09.313Z,13.60
2018-08-30T05:19:31.917Z,13.60
2018-08-30T05:22:06.938Z,13.50
2018-08-30T05:24:40.954Z,13.60
2018-08-30T05:30:02.232Z,13.60
2018-08-30T05:32:33.361Z,13.60
2018-08-30T05:35:19.292Z,13.60
2018-08-30T05:37:51.165Z,13.60
2018-08-30T05:40:26.101Z,13.70
2018-08-30T05:45:59.110Z,13.60
2018-08-30T05:48:35.272Z,13.70
2018-08-30T05:51:10.920Z,13.70
2018-08-30T05:53:40.281Z,13.70
2018-08-30T05:56:14.540Z,13.70
2018-08-30T05:58:45.848Z,13.70
2018-08-30T06:01:22.686Z,13.80
2018-08-30T06:04:00.269Z,13.80
2018-08-30T06:06:43.177Z,13.80
2018-08-30T06:09:14.945Z,13.90
2018-08-30T06:11:46.740Z,13.90
2018-08-30T06:14:15.491Z,14.00
2018-08-30T06:19:47.825Z,14.10
2018-08-30T06:22:19.585Z,14.10
2018-08-30T06:24:49.473Z,14.20
2018-08-30T06:27:24.326Z,14.30
2018-08-30T06:29:58.565Z,14.30
2018-08-30T06:32:29.962Z,14.40
2018-08-30T06:35:04.156Z,14.50
2018-08-30T06:37:35.369Z,14.60
2018-08-30T06:40:12.382Z,14.70
2018-08-30T06:42:46.205Z,14.80
2018-08-30T06:48:19.006Z,15.10
2018-08-30T06:50:49.019Z,15.20
2018-08-30T06:53:24.922Z,15.40
2018-08-30T07:01:51.729Z,15.90
2018-08-30T07:04:36.753Z,16.20
2018-08-30T07:07:09.906Z,16.40
2018-08-30T07:09:58.425Z,16.70
2018-08-30T07:15:27.946Z,17.10
2018-08-30T07:17:59.422Z,17.40
2018-08-30T07:20:29.302Z,17.70
2018-08-30T07:23:10.111Z,18.00
2018-08-30T07:25:47.120Z,18.20
2018-08-30T07:28:33.298Z,18.40
2018-08-30T07:31:07.152Z,18.60
2018-08-30T07:33:40.874Z,18.80
2018-08-30T07:36:24.207Z,19.00
2018-08-30T07:39:00.265Z,19.10
2018-08-30T07:41:41.105Z,19.10
2018-08-30T07:44:12.747Z,19.10
2018-08-30T07:46:44.418Z,19.10
2018-08-30T07:49:28.189Z,19.00
2018-08-30T07:52:02.447Z,18.90
2018-08-30T07:54:45.013Z,18.90
2018-08-30T07:57:19.982Z,18.70
2018-08-30T07:59:53.836Z,18.60
2018-08-30T08:02:36.097Z,18.60
2018-08-30T08:05:07.016Z,18.50
2018-08-30T08:07:56.378Z,18.50
2018-08-30T08:16:26.643Z,18.60
2018-08-30T08:19:01.750Z,18.70
2018-08-30T08:21:30.750Z,18.70
2018-08-30T08:24:02.720Z,18.80
2018-08-30T08:26:34.402Z,19.00
2018-08-30T08:29:08.729Z,19.10
2018-08-30T08:31:40.063Z,19.20
2018-08-30T08:34:11.208Z,19.20
2018-08-30T08:36:40.133Z,19.20
2018-08-30T08:39:15.012Z,19.30
2018-08-30T08:41:53.325Z,19.30
2018-08-30T08:44:42.880Z,19.30
2018-08-30T08:47:11.485Z,19.30
2018-08-30T08:49:47.477Z,19.30
2018-08-30T08:52:30.037Z,19.20
2018-08-30T08:55:04.340Z,19.20
2018-08-30T08:57:33.565Z,19.20
2018-08-30T09:00:07.817Z,19.20
2018-08-30T09:02:36.828Z,19.30
2018-08-30T09:05:06.704Z,19.50
2018-08-30T09:07:48.377Z,19.70
2018-08-30T09:13:16.280Z,20.00
2018-08-30T09:16:04.009Z,20.00
2018-08-30T09:18:49.781Z,20.10
2018-08-30T09:21:26.248Z,20.30
2018-08-30T09:24:06.806Z,20.40
2018-08-30T09:26:40.785Z,20.40
2018-08-30T09:29:10.015Z,20.50
2018-08-30T09:31:45.901Z,20.70
2018-08-30T09:34:20.000Z,20.90
2018-08-30T09:37:00.379Z,21.30
2018-08-30T09:39:30.028Z,21.50
2018-08-30T09:41:58.729Z,21.80
2018-08-30T09:44:27.744Z,22.10
2018-08-30T09:47:02.205Z,22.30
2018-08-30T09:49:40.013Z,22.60
2018-08-30T09:52:08.292Z,22.80
2018-08-30T09:54:42.662Z,22.90
2018-08-30T09:57:11.165Z,22.80
2018-08-30T09:59:39.805Z,22.60
2018-08-30T10:02:13.717Z,22.50
2018-08-30T10:04:42.165Z,22.40
2018-08-30T10:07:16.236Z,22.40
2018-08-30T10:09:44.812Z,22.60
2018-08-30T10:12:16.646Z,22.60
2018-08-30T10:14:45.412Z,22.90
2018-08-30T10:17:17.403Z,23.00
2018-08-30T10:19:53.589Z,23.00
2018-08-30T10:22:24.943Z,23.20
2018-08-30T10:25:01.292Z,23.50
2018-08-30T10:27:32.613Z,23.70
2018-08-30T10:30:01.360Z,23.90
2018-08-30T10:32:35.753Z,24.00
2018-08-30T10:35:04.835Z,23.90
2018-08-30T10:37:33.625Z,24.20
2018-08-30T10:40:05.858Z,24.40
2018-08-30T10:42:34.972Z,24.60
2018-08-30T10:45:08.622Z,24.30
2018-08-30T10:47:43.411Z,24.10
2018-08-30T10:50:11.812Z,23.90
2018-08-30T10:52:40.674Z,24.10
2018-08-30T10:55:09.692Z,24.30
2018-08-30T10:57:38.413Z,24.10
2018-08-30T11:00:12.741Z,23.90
2018-08-30T11:02:52.776Z,23.60
2018-08-30T11:05:27.030Z,23.50
2018-08-30T11:07:56.346Z,23.80
2018-08-30T11:10:30.403Z,23.80
2018-08-30T11:13:02.054Z,23.60
2018-08-30T11:15:30.835Z,23.40
2018-08-30T11:18:01.241Z,23.20
2018-08-30T11:20:30.215Z,22.90
2018-08-30T11:23:04.700Z,23.10
2018-08-30T11:25:34.815Z,23.40
2018-08-30T11:28:03.789Z,23.60
2018-08-30T11:30:36.014Z,23.70
2018-08-30T11:33:06.269Z,23.60
2018-08-30T11:35:40.617Z,23.60
2018-08-30T11:38:09.837Z,23.80
2018-08-30T11:40:38.683Z,23.90
2018-08-30T11:43:07.501Z,23.80
2018-08-30T11:46:10.487Z,23.50
2018-08-30T11:48:39.914Z,23.30
2018-08-30T11:51:09.460Z,23.00
2018-08-30T11:53:38.185Z,22.90
2018-08-30T11:56:10.754Z,22.70
2018-08-30T11:58:39.880Z,22.90
2018-08-30T12:01:08.831Z,23.20
2018-08-30T12:03:40.655Z,23.50
2018-08-30T12:06:09.436Z,23.80
2018-08-30T12:08:38.512Z,24.00
2018-08-30T12:11:07.275Z,24.30
2018-08-30T12:13:35.737Z,24.50
2018-08-30T12:16:09.744Z,24.80
2018-08-30T12:18:44.356Z,25.10
2018-08-30T12:21:24.834Z,25.40
2018-08-30T12:23:54.509Z,25.60
2018-08-30T12:26:23.101Z,26.00
2018-08-30T12:28:54.936Z,26.10
2018-08-30T12:31:24.440Z,26.40
2018-08-30T12:33:54.253Z,26.80
2018-08-30T12:36:22.896Z,27.00
2018-08-30T12:38:52.857Z,27.20
2018-08-30T12:41:21.472Z,27.30
2018-08-30T12:43:50.118Z,27.40
2018-08-30T12:46:24.271Z,27.40
2018-08-30T12:48:53.447Z,27.40
2018-08-30T12:51:22.218Z,27.50
2018-08-30T12:53:53.497Z,27.50
2018-08-30T12:56:23.051Z,27.60
2018-08-30T12:59:02.739Z,27.50
2018-08-30T13:01:37.002Z,27.40
2018-08-30T13:04:15.280Z,27.60
2018-08-30T13:06:52.577Z,27.40
2018-08-30T13:09:32.795Z,27.10
2018-08-30T13:12:09.230Z,26.60
2018-08-30T13:14:43.891Z,26.20
2018-08-30T13:17:17.883Z,26.10
2018-08-30T13:19:52.447Z,26.10
2018-08-30T13:22:27.065Z,26.20
2018-08-30T13:24:58.374Z,26.40
2018-08-30T13:27:28.131Z,26.00
2018-08-30T13:29:57.854Z,25.60
2018-08-30T13:32:32.417Z,25.40
2018-08-30T13:35:01.982Z,25.20
2018-08-30T13:37:30.486Z,25.10
2018-08-30T13:39:59.088Z,25.00
2018-08-30T13:42:30.863Z,24.70
2018-08-30T13:45:05.791Z,24.60
2018-08-30T13:47:40.944Z,24.20
2018-08-30T13:50:16.369Z,24.00
2018-08-30T13:52:52.151Z,23.80
2018-08-30T13:55:34.248Z,23.50
2018-08-30T13:58:03.411Z,23.60
2018-08-30T14:00:45.244Z,23.60
2018-08-30T14:03:21.703Z,23.50
2018-08-30T14:05:57.359Z,23.20
2018-08-30T14:08:33.447Z,23.10
2018-08-30T14:11:05.177Z,22.80
2018-08-30T14:13:55.149Z,22.70
2018-08-30T14:16:25.173Z,22.60
2018-08-30T14:19:06.489Z,22.50
2018-08-30T14:21:35.963Z,22.50
2018-08-30T14:24:21.786Z,22.40
2018-08-30T14:26:57.775Z,22.30
2018-08-30T14:29:43.741Z,22.20
2018-08-30T14:35:08.021Z,22.00
2018-08-30T14:37:48.289Z,22.00
2018-08-30T14:40:29.040Z,21.90
2018-08-30T14:43:10.491Z,21.80
2018-08-30T14:45:56.363Z,22.00
2018-08-30T14:48:30.596Z,21.80
2018-08-30T14:51:04.087Z,21.80
2018-08-30T14:53:33.545Z,21.80
2018-08-30T14:56:11.593Z,21.80
2018-08-30T14:58:52.853Z,22.00
2018-08-30T15:04:35.046Z,21.80
2018-08-30T15:07:17.303Z,21.70
2018-08-30T15:09:52.588Z,21.70
2018-08-30T15:12:24.220Z,22.10
2018-08-30T15:14:53.064Z,22.40
2018-08-30T15:17:22.843Z,22.70
2018-08-30T15:19:52.420Z,23.20
2018-08-30T15:22:21.124Z,23.60
2018-08-30T15:24:49.749Z,23.90
2018-08-30T15:27:18.812Z,24.00
2018-08-30T15:29:47.836Z,24.00
2018-08-30T15:32:16.642Z,24.20
2018-08-30T15:34:45.580Z,24.30
2018-08-30T15:37:14.496Z,24.30
2018-08-30T15:39:43.367Z,24.40
2018-08-30T15:42:12.219Z,24.30
2018-08-30T15:44:41.086Z,24.30
2018-08-30T15:47:10.158Z,24.40
2018-08-30T15:49:40.197Z,24.20
2018-08-30T15:52:09.309Z,24.20
2018-08-30T15:54:38.101Z,24.20
2018-08-30T15:57:06.917Z,24.00
2018-08-30T15:59:36.707Z,24.00
2018-08-30T16:02:06.082Z,23.90
2018-08-30T16:04:37.184Z,24.00
2018-08-30T16:07:05.926Z,24.00
2018-08-30T16:09:34.763Z,24.10
2018-08-30T16:12:03.419Z,24.00
2018-08-30T16:14:32.712Z,23.70
2018-08-30T16:17:01.428Z,23.40
2018-08-30T16:19:31.544Z,23.20
2018-08-30T16:22:00.151Z,23.10
2018-08-30T16:24:29.332Z,22.80
2018-08-30T16:26:58.797Z,22.60
2018-08-30T16:29:27.776Z,22.40
2018-08-30T16:31:56.640Z,22.30
2018-08-30T16:34:25.232Z,22.30
2018-08-30T16:36:53.936Z,22.50
2018-08-30T16:39:22.644Z,22.50
2018-08-30T16:41:51.630Z,22.40
2018-08-30T16:44:20.659Z,22.20
2018-08-30T16:46:49.527Z,22.00
2018-08-30T16:49:19.539Z,21.80
2018-08-30T16:51:48.360Z,21.80
2018-08-30T16:54:17.269Z,21.80
2018-08-30T16:56:49.048Z,21.80
2018-08-30T16:59:17.924Z,21.70
2018-08-30T17:01:46.717Z,21.60
2018-08-30T17:04:15.535Z,21.50
2018-08-30T17:06:44.417Z,21.50
2018-08-30T17:09:13.093Z,21.30
2018-08-30T17:11:41.884Z,21.20
2018-08-30T17:14:10.881Z,21.00
2018-08-30T17:16:40.708Z,20.80
2018-08-30T17:19:42.456Z,20.70
2018-08-30T17:22:12.018Z,20.50
2018-08-30T17:24:40.316Z,20.30
2018-08-30T17:27:09.392Z,20.00
2018-08-30T17:29:37.916Z,19.80
2018-08-30T17:32:06.688Z,19.70
2018-08-30T17:34:35.517Z,19.60
2018-08-30T17:37:04.350Z,19.40
2018-08-30T17:39:35.288Z,19.30
2018-08-30T17:42:04.872Z,19.20
2018-08-30T17:44:34.582Z,19.20
2018-08-30T17:47:03.396Z,19.10
2018-08-30T17:49:32.017Z,19.00
2018-08-30T17:52:03.609Z,18.90
2018-08-30T17:54:32.427Z,18.80
2018-08-30T17:57:04.493Z,18.70
2018-08-30T17:59:35.796Z,18.60
2018-08-30T18:02:05.493Z,18.50
2018-08-30T18:04:35.023Z,18.40
2018-08-30T18:07:03.441Z,18.30
2018-08-30T18:09:48.656Z,18.30
2018-08-30T18:12:29.384Z,18.20
2018-08-30T18:15:14.315Z,18.10
2018-08-30T18:17:44.331Z,18.00
2018-08-30T18:23:08.726Z,17.70
2018-08-30T18:25:42.816Z,17.60
2018-08-30T18:28:14.028Z,17.50
2018-08-30T18:33:56.571Z,17.40
2018-08-30T18:36:27.985Z,17.20
2018-08-30T18:38:59.072Z,17.10
2018-08-30T18:41:39.725Z,17.00
2018-08-30T18:44:26.228Z,16.90
2018-08-30T18:47:00.496Z,16.80
2018-08-30T18:49:28.827Z,16.70
2018-08-30T18:51:57.544Z,16.60
2018-08-30T18:54:26.231Z,16.60
2018-08-30T18:56:56.011Z,16.50
2018-08-30T18:59:38.694Z,16.40
2018-08-30T19:02:15.105Z,16.40
2018-08-30T19:05:05.985Z,16.20
2018-08-30T19:07:47.193Z,16.20
2018-08-30T19:13:07.832Z,16.00
2018-08-30T19:15:45.112Z,15.90
2018-08-30T19:18:23.541Z,15.80
2018-08-30T19:20:52.343Z,15.70
2018-08-30T19:23:23.993Z,15.60
2018-08-30T19:25:52.820Z,15.50
2018-08-30T19:28:27.078Z,15.40
2018-08-30T19:30:58.440Z,15.40
2018-08-30T19:33:27.214Z,15.30
2018-08-30T19:36:01.050Z,15.20
2018-08-30T19:38:29.706Z,15.10
2018-08-30T19:41:10.181Z,15.10
2018-08-30T19:43:41.909Z,15.00
2018-08-30T19:46:17.223Z,14.90
2018-08-30T19:48:46.647Z,14.90
2018-08-30T19:51:21.466Z,14.90
2018-08-30T19:53:56.114Z,14.80
2018-08-30T19:56:27.300Z,14.70
2018-08-30T19:58:55.841Z,14.70
2018-08-30T20:01:24.490Z,14.70
2018-08-30T20:03:58.775Z,14.70
2018-08-30T20:06:27.132Z,14.70
2018-08-30T20:08:55.942Z,14.60
2018-08-30T20:11:24.677Z,14.60
2018-08-30T20:13:53.488Z,14.60
2018-08-30T20:16:23.229Z,14.60
2018-08-30T20:18:52.126Z,14.50
2018-08-30T20:21:20.752Z,14.50
2018-08-30T20:23:49.942Z,14.40
2018-08-30T20:26:18.760Z,14.40
2018-08-30T20:28:50.853Z,14.30
2018-08-30T20:31:19.480Z,14.30
2018-08-30T20:33:48.122Z,14.20
2018-08-30T20:36:16.976Z,14.20
2018-08-30T20:38:45.585Z,14.10
2018-08-30T20:41:17.056Z,14.10
2018-08-30T20:43:46.403Z,14.00
2018-08-30T20:55:06.159Z,13.80
2018-08-30T20:57:52.240Z,13.80
2018-08-30T21:03:13.152Z,13.70
2018-08-30T21:05:49.396Z,13.60
2018-08-30T21:08:18.616Z,13.60
2018-08-30T21:11:00.702Z,13.60
2018-08-30T21:13:38.812Z,13.60
2018-08-30T21:16:25.236Z,13.60
2018-08-30T21:18:54.537Z,13.60
2018-08-30T21:21:23.573Z,13.50
2018-08-30T21:24:13.577Z,13.50
2018-08-30T21:26:47.734Z,13.50
2018-08-30T21:29:23.793Z,13.40
2018-08-30T21:32:02.162Z,13.40
2018-08-30T21:34:47.821Z,13.40
2018-08-30T21:37:19.416Z,13.30
2018-08-30T21:39:51.314Z,13.30
2018-08-30T21:42:21.276Z,13.30
2018-08-30T21:44:51.193Z,13.20
2018-08-30T21:47:20.916Z,13.20
2018-08-30T21:50:06.212Z,13.20
2018-08-30T21:52:54.808Z,13.10
2018-08-30T22:01:13.602Z,13.00
2018-08-30T22:03:42.936Z,12.90
2018-08-30T22:06:28.588Z,12.90
2018-08-30T22:09:03.031Z,12.90
2018-08-30T22:11:38.898Z,12.80
2018-08-30T22:14:10.300Z,12.80
2018-08-30T22:16:55.032Z,12.80
2018-08-30T22:19:30.982Z,12.80
2018-08-30T22:22:04.643Z,12.80
2018-08-30T22:24:46.037Z,12.70
2018-08-30T22:27:36.009Z,12.70
2018-08-30T22:30:20.788Z,12.70
2018-08-30T22:38:39.148Z,12.60
2018-08-30T22:41:19.416Z,12.50
2018-08-30T22:46:57.432Z,12.50
2018-08-30T22:49:45.525Z,12.50
2018-08-30T22:52:27.116Z,12.50
2018-08-30T22:55:18.362Z,12.50
2018-08-30T22:58:04.671Z,12.40
2018-08-30T23:00:50.676Z,12.40
2018-08-30T23:03:24.764Z,12.40
2018-08-30T23:05:53.083Z,12.40
2018-08-30T23:08:29.303Z,12.40
2018-08-30T23:11:00.604Z,12.30
2018-08-30T23:13:29.043Z,12.40
2018-08-30T23:16:03.336Z,12.30
2018-08-30T23:18:34.585Z,12.30
2018-08-30T23:21:17.126Z,12.30
2018-08-30T23:23:51.760Z,12.30
2018-08-30T23:26:33.051Z,12.30
2018-08-30T23:29:02.622Z,12.30
2018-08-30T23:31:34.735Z,12.30
2018-08-30T23:34:03.320Z,12.30
2018-08-30T23:36:47.206Z,12.30
2018-08-30T23:39:34.273Z,12.20
2018-08-30T23:42:20.141Z,12.20
2018-08-30T23:44:54.552Z,12.20
2018-08-30T23:47:23.028Z,12.20
2018-08-30T23:49:54.620Z,12.20
2018-08-30T23:52:29.069Z,12.20
2018-08-30T23:55:09.349Z,12.10
2018-08-30T23:57:52.836Z,12.10
